IOS265 EGHC-EGHE
Flight info
| Callsign | IOS265 |
|---|---|
| Flight time | 0h 15m |
| Altitude | 2000 |
| Route | KOGOK DCT LANLO |
| Aircraft | BN2P/L-SFG/C |
Departure
| Time | 2026-05-04 15:26 |
|---|---|
| Airport | Land's End Airport (EGHC) |
Arrival
| Time | 2026-05-04 15:41 |
|---|---|
| Airport | St. Mary's Airport (EGHE) |
| Time | Latitude | Longitude | Altitude | Speed | Heading |
|---|---|---|---|---|---|
| 2026-05-04 15:10 | 50.10226 | -5.66839 | 401 ft | 0 kts | 329° |
| 2026-05-04 15:19 | 50.10226 | -5.66842 | 401 ft | 1 kts | 270° |
| 2026-05-04 15:20 | 50.10224 | -5.66843 | 401 ft | 1 kts | 156° |
| 2026-05-04 15:20 | 50.10209 | -5.66826 | 402 ft | 2 kts | 144° |
| 2026-05-04 15:20 | 50.10184 | -5.66830 | 402 ft | 9 kts | 224° |
| 2026-05-04 15:20 | 50.10146 | -5.66905 | 401 ft | 5 kts | 236° |
| 2026-05-04 15:21 | 50.10136 | -5.66929 | 401 ft | 3 kts | 234° |
| 2026-05-04 15:21 | 50.10111 | -5.66957 | 402 ft | 6 kts | 173° |
| 2026-05-04 15:21 | 50.10088 | -5.66936 | 401 ft | 5 kts | 333° |
| 2026-05-04 15:22 | 50.10156 | -5.66990 | 400 ft | 14 kts | 336° |
| 2026-05-04 15:22 | 50.10263 | -5.67058 | 395 ft | 19 kts | 340° |
| 2026-05-04 15:22 | 50.10518 | -5.67204 | 388 ft | 17 kts | 336° |
| 2026-05-04 15:23 | 50.10577 | -5.67261 | 389 ft | 0 kts | 25° |
| 2026-05-04 15:23 | 50.10574 | -5.67248 | 389 ft | 2 kts | 130° |
| 2026-05-04 15:23 | 50.10572 | -5.67245 | 389 ft | 0 kts | 150° |
| 2026-05-04 15:23 | 50.10559 | -5.67237 | 389 ft | 17 kts | 156° |
| 2026-05-04 15:24 | 50.09785 | -5.66802 | 535 ft | 72 kts | 171° |
| 2026-05-04 15:24 | 50.09101 | -5.67959 | 688 ft | 92 kts | 259° |
| 2026-05-04 15:25 | 50.08745 | -5.68739 | 773 ft | 93 kts | 207° |
| 2026-05-04 15:25 | 50.08235 | -5.69351 | 884 ft | 94 kts | 219° |
| 2026-05-04 15:25 | 50.07703 | -5.69990 | 997 ft | 99 kts | 213° |
| 2026-05-04 15:26 | 50.06570 | -5.71354 | 1221 ft | 109 kts | 213° |
| 2026-05-04 15:26 | 50.05951 | -5.72086 | 1334 ft | 111 kts | 214° |
| 2026-05-04 15:26 | 50.04705 | -5.73524 | 1539 ft | 114 kts | 214° |
| 2026-05-04 15:27 | 50.04072 | -5.74261 | 1638 ft | 114 kts | 214° |
| 2026-05-04 15:27 | 50.03007 | -5.75496 | 1806 ft | 114 kts | 215° |
| 2026-05-04 15:28 | 50.01732 | -5.76974 | 2014 ft | 115 kts | 215° |
| 2026-05-04 15:28 | 50.01088 | -5.77720 | 2118 ft | 116 kts | 216° |
| 2026-05-04 15:28 | 49.99812 | -5.79196 | 2234 ft | 114 kts | 216° |
| 2026-05-04 15:29 | 49.99192 | -5.79999 | 2173 ft | 115 kts | 230° |
| 2026-05-04 15:30 | 49.99065 | -5.84731 | 1950 ft | 107 kts | 268° |
| 2026-05-04 15:30 | 49.99073 | -5.88209 | 1802 ft | 108 kts | 269° |
| 2026-05-04 15:31 | 49.99080 | -5.90512 | 1749 ft | 104 kts | 268° |
| 2026-05-04 15:31 | 49.99082 | -5.91609 | 1742 ft | 103 kts | 268° |
| 2026-05-04 15:32 | 49.99084 | -5.94767 | 1775 ft | 90 kts | 268° |
| 2026-05-04 15:32 | 49.98793 | -5.96491 | 1849 ft | 78 kts | 255° |
| 2026-05-04 15:33 | 49.98493 | -5.97964 | 1911 ft | 65 kts | 244° |
| 2026-05-04 15:34 | 49.98065 | -6.00375 | 1936 ft | 104 kts | 249° |
| 2026-05-04 15:34 | 49.97691 | -6.01389 | 1939 ft | 112 kts | 234° |
| 2026-05-04 15:34 | 49.96891 | -6.03545 | 2038 ft | 122 kts | 243° |
| 2026-05-04 15:35 | 49.96137 | -6.05984 | 1988 ft | 128 kts | 244° |
| 2026-05-04 15:35 | 49.95766 | -6.07259 | 1965 ft | 129 kts | 244° |
| 2026-05-04 15:35 | 49.95374 | -6.08522 | 1943 ft | 131 kts | 244° |
| 2026-05-04 15:36 | 49.94554 | -6.10955 | 1692 ft | 117 kts | 236° |
| 2026-05-04 15:36 | 49.94149 | -6.11907 | 1515 ft | 97 kts | 234° |
| 2026-05-04 15:36 | 49.93767 | -6.12734 | 1401 ft | 93 kts | 232° |
| 2026-05-04 15:37 | 49.93390 | -6.13515 | 1337 ft | 89 kts | 230° |
| 2026-05-04 15:37 | 49.93011 | -6.14291 | 1303 ft | 91 kts | 231° |
| 2026-05-04 15:37 | 49.92649 | -6.15149 | 1207 ft | 100 kts | 238° |
| 2026-05-04 15:37 | 49.92410 | -6.16179 | 1121 ft | 103 kts | 255° |
| 2026-05-04 15:38 | 49.92271 | -6.17282 | 933 ft | 102 kts | 257° |
| 2026-05-04 15:38 | 49.92135 | -6.18330 | 766 ft | 96 kts | 257° |
| 2026-05-04 15:38 | 49.92020 | -6.19297 | 690 ft | 86 kts | 258° |
| 2026-05-04 15:38 | 49.91944 | -6.20173 | 620 ft | 79 kts | 259° |
| 2026-05-04 15:39 | 49.91880 | -6.21002 | 601 ft | 76 kts | 262° |
| 2026-05-04 15:39 | 49.91832 | -6.21845 | 614 ft | 81 kts | 261° |
| 2026-05-04 15:39 | 49.91643 | -6.23655 | 596 ft | 86 kts | 259° |
| 2026-05-04 15:40 | 49.91561 | -6.24568 | 534 ft | 83 kts | 260° |
| 2026-05-04 15:40 | 49.91493 | -6.25431 | 445 ft | 79 kts | 262° |
| 2026-05-04 15:40 | 49.91445 | -6.26270 | 370 ft | 78 kts | 265° |
| 2026-05-04 15:40 | 49.91412 | -6.27093 | 291 ft | 73 kts | 264° |
| 2026-05-04 15:41 | 49.91382 | -6.27839 | 210 ft | 67 kts | 264° |
| 2026-05-04 15:41 | 49.91359 | -6.28538 | 146 ft | 66 kts | 266° |
| 2026-05-04 15:41 | 49.91336 | -6.29160 | 118 ft | 40 kts | 267° |
| 2026-05-04 15:41 | 49.91332 | -6.29398 | 114 ft | 7 kts | 274° |
| 2026-05-04 15:42 | 49.91358 | -6.29457 | 111 ft | 5 kts | 327° |
| 2026-05-04 15:42 | 49.91375 | -6.29467 | 111 ft | 0 kts | 19° |
| 2026-05-04 15:42 | 49.91384 | -6.29452 | 111 ft | 4 kts | 76° |
| 2026-05-04 15:42 | 49.91385 | -6.29418 | 112 ft | 0 kts | 91° |